< < Back
Terminal Aerodrome Forecast


Current Version              Previous Versions:   1  2  3  4  5  6  7  8  9  

Terminal Aerodrome Forecast

501
FTUS42 KJAX 300500 RRA
TAFSSI
TAF
KSSI 300545Z 3006/3106 17005KT P6SM FEW020 SCT250
     FM301400 10006KT P6SM SCT030
     FM301700 12010KT P6SM SCT035 SCT250=



Latest METAR

029
SAUS70 KWBC 300800 RRJ
MTRSSI
METAR KSSI 300753Z AUTO 00000KT 10SM CLR 26/24 A3010 RMK AO2 SLP191
T02560239


USA.gov is the U.S. government's official web portal to all federal, state and local government web resources and services.